sensor_id;sensor_type;location;lat;lon;timestamp;pressure;altitude;pressure_sealevel;temperature;humidity
80620;BME280;69979;53.682;-2.690;2023-12-20T00:02:11;101443.59;;;3.09;82.48
80620;BME280;69979;53.682;-2.690;2023-12-20T00:04:37;101428.49;;;3.11;82.47
80620;BME280;69979;53.682;-2.690;2023-12-20T00:07:03;101424.75;;;3.23;82.60
80620;BME280;69979;53.682;-2.690;2023-12-20T00:09:28;101425.40;;;3.01;82.93
80620;BME280;69979;53.682;-2.690;2023-12-20T00:11:54;101421.60;;;3.10;81.69
80620;BME280;69979;53.682;-2.690;2023-12-20T00:14:20;101435.07;;;3.28;80.95
80620;BME280;69979;53.682;-2.690;2023-12-20T00:16:45;101431.61;;;3.42;80.95
80620;BME280;69979;53.682;-2.690;2023-12-20T00:19:11;101431.49;;;3.57;80.29
80620;BME280;69979;53.682;-2.690;2023-12-20T00:21:36;101439.39;;;3.52;80.10
80620;BME280;69979;53.682;-2.690;2023-12-20T00:24:02;101433.39;;;3.21;82.15
80620;BME280;69979;53.682;-2.690;2023-12-20T00:26:27;101438.15;;;3.22;82.68
80620;BME280;69979;53.682;-2.690;2023-12-20T00:28:53;101429.02;;;3.05;83.37
80620;BME280;69979;53.682;-2.690;2023-12-20T00:31:24;101424.83;;;3.35;82.49
80620;BME280;69979;53.682;-2.690;2023-12-20T00:33:45;101419.15;;;3.73;80.14
80620;BME280;69979;53.682;-2.690;2023-12-20T00:36:10;101416.09;;;4.28;78.04
80620;BME280;69979;53.682;-2.690;2023-12-20T00:38:36;101414.55;;;4.14;78.22
80620;BME280;69979;53.682;-2.690;2023-12-20T00:41:02;101406.79;;;3.50;81.01
80620;BME280;69979;53.682;-2.690;2023-12-20T00:43:27;101405.93;;;3.46;80.05
80620;BME280;69979;53.682;-2.690;2023-12-20T00:45:52;101399.86;;;3.29;81.61
80620;BME280;69979;53.682;-2.690;2023-12-20T00:48:18;101400.38;;;3.38;81.75
80620;BME280;69979;53.682;-2.690;2023-12-20T00:50:44;101396.67;;;3.52;81.06
80620;BME280;69979;53.682;-2.690;2023-12-20T00:53:10;101404.53;;;3.51;80.84
80620;BME280;69979;53.682;-2.690;2023-12-20T00:55:35;101394.61;;;4.00;79.01
80620;BME280;69979;53.682;-2.690;2023-12-20T00:58:00;101394.59;;;3.02;83.94
80620;BME280;69979;53.682;-2.690;2023-12-20T01:00:25;101381.09;;;3.35;80.87
80620;BME280;69979;53.682;-2.690;2023-12-20T01:02:50;101378.14;;;3.22;83.05
80620;BME280;69979;53.682;-2.690;2023-12-20T01:05:16;101379.37;;;3.44;83.16
80620;BME280;69979;53.682;-2.690;2023-12-20T01:07:41;101385.43;;;3.22;84.31
80620;BME280;69979;53.682;-2.690;2023-12-20T01:10:07;101384.90;;;3.12;84.69
80620;BME280;69979;53.682;-2.690;2023-12-20T01:12:32;101385.60;;;3.31;83.51
80620;BME280;69979;53.682;-2.690;2023-12-20T01:14:58;101373.62;;;3.57;82.50
80620;BME280;69979;53.682;-2.690;2023-12-20T01:17:23;101379.75;;;3.75;82.05
80620;BME280;69979;53.682;-2.690;2023-12-20T01:19:49;101387.71;;;3.73;81.94
80620;BME280;69979;53.682;-2.690;2023-12-20T01:22:14;101374.57;;;4.26;80.04
80620;BME280;69979;53.682;-2.690;2023-12-20T01:24:40;101373.16;;;3.63;80.95
80620;BME280;69979;53.682;-2.690;2023-12-20T01:27:05;101377.68;;;3.67;82.27
80620;BME280;69979;53.682;-2.690;2023-12-20T01:29:31;101369.52;;;3.74;82.52
80620;BME280;69979;53.682;-2.690;2023-12-20T01:31:56;101370.29;;;4.00;81.31
80620;BME280;69979;53.682;-2.690;2023-12-20T01:34:21;101372.00;;;3.65;82.45
80620;BME280;69979;53.682;-2.690;2023-12-20T01:36:47;101372.03;;;3.14;84.27
80620;BME280;69979;53.682;-2.690;2023-12-20T01:39:13;101359.73;;;3.39;84.15
80620;BME280;69979;53.682;-2.690;2023-12-20T01:41:38;101352.95;;;3.53;83.96
80620;BME280;69979;53.682;-2.690;2023-12-20T01:44:04;101343.41;;;3.86;81.74
80620;BME280;69979;53.682;-2.690;2023-12-20T01:46:30;101344.11;;;3.98;80.84
80620;BME280;69979;53.682;-2.690;2023-12-20T01:48:55;101344.54;;;3.68;81.23
80620;BME280;69979;53.682;-2.690;2023-12-20T01:51:21;101352.90;;;4.07;80.06
80620;BME280;69979;53.682;-2.690;2023-12-20T01:53:47;101367.00;;;4.33;78.81
80620;BME280;69979;53.682;-2.690;2023-12-20T01:56:12;101350.97;;;3.83;81.67
80620;BME280;69979;53.682;-2.690;2023-12-20T01:58:41;101363.42;;;3.60;82.55
80620;BME280;69979;53.682;-2.690;2023-12-20T02:01:03;101342.75;;;3.85;82.96
80620;BME280;69979;53.682;-2.690;2023-12-20T02:03:29;101352.91;;;3.40;84.02
80620;BME280;69979;53.682;-2.690;2023-12-20T02:05:55;101355.34;;;3.71;83.60
80620;BME280;69979;53.682;-2.690;2023-12-20T02:08:19;101344.98;;;3.76;83.54
80620;BME280;69979;53.682;-2.690;2023-12-20T02:10:45;101360.78;;;3.96;83.07
80620;BME280;69979;53.682;-2.690;2023-12-20T02:13:10;101357.23;;;3.92;82.34
80620;BME280;69979;53.682;-2.690;2023-12-20T02:15:36;101345.28;;;4.67;80.30
80620;BME280;69979;53.682;-2.690;2023-12-20T02:18:01;101356.14;;;3.74;83.70
80620;BME280;69979;53.682;-2.690;2023-12-20T02:20:27;101359.80;;;3.88;85.59
80620;BME280;69979;53.682;-2.690;2023-12-20T02:22:52;101363.04;;;3.45;86.14
80620;BME280;69979;53.682;-2.690;2023-12-20T02:25:17;101354.10;;;3.75;85.35
80620;BME280;69979;53.682;-2.690;2023-12-20T02:27:43;101342.10;;;4.19;83.15
80620;BME280;69979;53.682;-2.690;2023-12-20T02:30:09;101359.30;;;3.93;85.45
80620;BME280;69979;53.682;-2.690;2023-12-20T02:32:34;101348.52;;;4.01;84.43
80620;BME280;69979;53.682;-2.690;2023-12-20T02:34:59;101349.85;;;3.49;86.50
80620;BME280;69979;53.682;-2.690;2023-12-20T02:37:25;101343.79;;;3.80;85.26
80620;BME280;69979;53.682;-2.690;2023-12-20T02:39:50;101345.88;;;3.69;84.33
80620;BME280;69979;53.682;-2.690;2023-12-20T02:42:16;101345.17;;;3.57;85.91
80620;BME280;69979;53.682;-2.690;2023-12-20T02:44:41;101337.96;;;3.67;86.05
80620;BME280;69979;53.682;-2.690;2023-12-20T02:47:07;101347.54;;;3.55;85.70
80620;BME280;69979;53.682;-2.690;2023-12-20T02:49:32;101340.01;;;4.00;83.83
80620;BME280;69979;53.682;-2.690;2023-12-20T02:51:58;101364.83;;;4.24;83.73
80620;BME280;69979;53.682;-2.690;2023-12-20T02:54:23;101354.32;;;3.75;84.19
80620;BME280;69979;53.682;-2.690;2023-12-20T02:56:49;101355.44;;;4.23;83.97
80620;BME280;69979;53.682;-2.690;2023-12-20T02:59:14;101355.02;;;4.17;84.35
80620;BME280;69979;53.682;-2.690;2023-12-20T03:01:43;101340.99;;;3.86;85.10
80620;BME280;69979;53.682;-2.690;2023-12-20T03:04:05;101346.26;;;3.86;84.94
80620;BME280;69979;53.682;-2.690;2023-12-20T03:06:31;101341.43;;;4.11;84.19
80620;BME280;69979;53.682;-2.690;2023-12-20T03:08:57;101339.76;;;4.14;84.72
80620;BME280;69979;53.682;-2.690;2023-12-20T03:11:26;101358.85;;;5.26;81.28
80620;BME280;69979;53.682;-2.690;2023-12-20T03:13:47;101356.87;;;3.83;85.32
80620;BME280;69979;53.682;-2.690;2023-12-20T03:16:13;101374.27;;;3.92;86.13
80620;BME280;69979;53.682;-2.690;2023-12-20T03:18:38;101371.62;;;4.27;83.54
80620;BME280;69979;53.682;-2.690;2023-12-20T03:21:04;101369.87;;;4.40;83.43
80620;BME280;69979;53.682;-2.690;2023-12-20T03:23:29;101370.51;;;4.17;83.86
80620;BME280;69979;53.682;-2.690;2023-12-20T03:25:55;101363.33;;;3.98;83.26
80620;BME280;69979;53.682;-2.690;2023-12-20T03:28:21;101363.27;;;3.97;83.07
80620;BME280;69979;53.682;-2.690;2023-12-20T03:30:46;101357.31;;;4.30;83.19
80620;BME280;69979;53.682;-2.690;2023-12-20T03:33:11;101357.69;;;5.10;79.94
80620;BME280;69979;53.682;-2.690;2023-12-20T03:35:37;101360.05;;;4.46;80.74
80620;BME280;69979;53.682;-2.690;2023-12-20T03:38:02;101361.45;;;4.02;83.69
80620;BME280;69979;53.682;-2.690;2023-12-20T03:40:28;101349.53;;;4.30;82.01
80620;BME280;69979;53.682;-2.690;2023-12-20T03:42:53;101344.04;;;4.07;83.19
80620;BME280;69979;53.682;-2.690;2023-12-20T03:45:19;101345.26;;;4.28;82.73
80620;BME280;69979;53.682;-2.690;2023-12-20T03:47:44;101337.01;;;4.36;81.17
80620;BME280;69979;53.682;-2.690;2023-12-20T03:50:09;101335.14;;;4.46;83.36
80620;BME280;69979;53.682;-2.690;2023-12-20T03:52:35;101336.72;;;4.98;80.26
80620;BME280;69979;53.682;-2.690;2023-12-20T03:55:00;101342.45;;;4.73;78.75
80620;BME280;69979;53.682;-2.690;2023-12-20T03:57:26;101343.64;;;4.12;82.98
80620;BME280;69979;53.682;-2.690;2023-12-20T03:59:51;101346.53;;;4.53;82.40
80620;BME280;69979;53.682;-2.690;2023-12-20T04:02:17;101344.16;;;5.15;79.00
80620;BME280;69979;53.682;-2.690;2023-12-20T04:04:43;101337.36;;;4.33;82.95
80620;BME280;69979;53.682;-2.690;2023-12-20T04:07:08;101349.54;;;4.84;80.66
80620;BME280;69979;53.682;-2.690;2023-12-20T04:09:33;101343.52;;;4.14;83.46
80620;BME280;69979;53.682;-2.690;2023-12-20T04:11:59;101351.35;;;4.39;83.67
80620;BME280;69979;53.682;-2.690;2023-12-20T04:14:25;101347.12;;;3.90;84.94
80620;BME280;69979;53.682;-2.690;2023-12-20T04:16:50;101353.60;;;4.07;84.36
80620;BME280;69979;53.682;-2.690;2023-12-20T04:19:16;101358.88;;;4.19;83.58
80620;BME280;69979;53.682;-2.690;2023-12-20T04:21:41;101357.06;;;3.98;85.20
80620;BME280;69979;53.682;-2.690;2023-12-20T04:24:07;101358.32;;;4.22;83.74
80620;BME280;69979;53.682;-2.690;2023-12-20T04:26:32;101345.41;;;3.92;86.44
80620;BME280;69979;53.682;-2.690;2023-12-20T04:28:57;101352.30;;;3.34;85.81
80620;BME280;69979;53.682;-2.690;2023-12-20T04:31:22;101359.03;;;4.42;84.20
80620;BME280;69979;53.682;-2.690;2023-12-20T04:33:48;101340.12;;;3.84;85.75
80620;BME280;69979;53.682;-2.690;2023-12-20T04:36:13;101342.08;;;4.03;85.23
80620;BME280;69979;53.682;-2.690;2023-12-20T04:38:39;101341.85;;;4.51;83.00
80620;BME280;69979;53.682;-2.690;2023-12-20T04:41:04;101345.59;;;4.48;82.36
80620;BME280;69979;53.682;-2.690;2023-12-20T04:43:30;101342.63;;;4.46;84.06
80620;BME280;69979;53.682;-2.690;2023-12-20T04:45:56;101344.96;;;4.24;84.83
80620;BME280;69979;53.682;-2.690;2023-12-20T04:48:22;101345.85;;;4.45;83.60
80620;BME280;69979;53.682;-2.690;2023-12-20T04:50:47;101336.11;;;4.08;84.00
80620;BME280;69979;53.682;-2.690;2023-12-20T04:53:13;101333.30;;;4.10;84.37
80620;BME280;69979;53.682;-2.690;2023-12-20T04:55:38;101338.68;;;4.14;84.22
80620;BME280;69979;53.682;-2.690;2023-12-20T04:58:04;101339.49;;;4.32;83.07
80620;BME280;69979;53.682;-2.690;2023-12-20T05:00:29;101339.46;;;4.39;84.48
80620;BME280;69979;53.682;-2.690;2023-12-20T05:02:55;101348.60;;;4.36;83.46
80620;BME280;69979;53.682;-2.690;2023-12-20T05:05:21;101324.70;;;4.24;83.66
80620;BME280;69979;53.682;-2.690;2023-12-20T05:07:45;101312.01;;;4.58;83.82
80620;BME280;69979;53.682;-2.690;2023-12-20T05:10:11;101318.79;;;4.10;84.64
80620;BME280;69979;53.682;-2.690;2023-12-20T05:12:37;101302.44;;;4.09;84.88
80620;BME280;69979;53.682;-2.690;2023-12-20T05:15:03;101308.27;;;4.35;83.09
80620;BME280;69979;53.682;-2.690;2023-12-20T05:17:28;101305.96;;;4.14;85.13
80620;BME280;69979;53.682;-2.690;2023-12-20T05:19:53;101311.27;;;4.15;84.77
80620;BME280;69979;53.682;-2.690;2023-12-20T05:22:19;101294.90;;;4.28;82.39
80620;BME280;69979;53.682;-2.690;2023-12-20T05:24:45;101313.88;;;3.98;84.39
80620;BME280;69979;53.682;-2.690;2023-12-20T05:27:10;101321.15;;;3.69;85.86
80620;BME280;69979;53.682;-2.690;2023-12-20T05:29:36;101331.12;;;3.69;86.46
80620;BME280;69979;53.682;-2.690;2023-12-20T05:32:02;101317.83;;;4.07;85.43
80620;BME280;69979;53.682;-2.690;2023-12-20T05:34:27;101333.87;;;4.38;84.07
80620;BME280;69979;53.682;-2.690;2023-12-20T05:36:52;101331.42;;;4.42;83.46
80620;BME280;69979;53.682;-2.690;2023-12-20T05:39:18;101323.70;;;4.17;83.75
80620;BME280;69979;53.682;-2.690;2023-12-20T05:41:44;101321.70;;;4.54;83.18
80620;BME280;69979;53.682;-2.690;2023-12-20T05:44:09;101315.53;;;4.61;81.94
80620;BME280;69979;53.682;-2.690;2023-12-20T05:46:35;101300.49;;;4.11;83.87
80620;BME280;69979;53.682;-2.690;2023-12-20T05:49:00;101289.17;;;4.27;83.91
80620;BME280;69979;53.682;-2.690;2023-12-20T05:51:26;101285.90;;;3.88;85.75
80620;BME280;69979;53.682;-2.690;2023-12-20T05:53:51;101273.79;;;4.82;82.17
80620;BME280;69979;53.682;-2.690;2023-12-20T05:56:17;101273.90;;;4.94;80.21
80620;BME280;69979;53.682;-2.690;2023-12-20T05:58:43;101282.92;;;4.06;85.43
80620;BME280;69979;53.682;-2.690;2023-12-20T06:01:08;101278.27;;;4.29;85.81
80620;BME280;69979;53.682;-2.690;2023-12-20T06:03:34;101288.00;;;4.46;84.74
80620;BME280;69979;53.682;-2.690;2023-12-20T06:06:04;101287.96;;;4.40;85.26
80620;BME280;69979;53.682;-2.690;2023-12-20T06:08:25;101292.34;;;4.42;83.77
80620;BME280;69979;53.682;-2.690;2023-12-20T06:10:50;101280.71;;;4.47;83.56
80620;BME280;69979;53.682;-2.690;2023-12-20T06:13:16;101284.97;;;4.84;81.11
80620;BME280;69979;53.682;-2.690;2023-12-20T06:15:42;101289.88;;;4.58;82.39
80620;BME280;69979;53.682;-2.690;2023-12-20T06:18:07;101301.02;;;4.55;82.20
80620;BME280;69979;53.682;-2.690;2023-12-20T06:20:33;101306.40;;;4.80;80.10
80620;BME280;69979;53.682;-2.690;2023-12-20T06:22:58;101311.30;;;4.27;81.40
80620;BME280;69979;53.682;-2.690;2023-12-20T06:25:24;101303.22;;;4.53;81.85
80620;BME280;69979;53.682;-2.690;2023-12-20T06:27:50;101304.68;;;4.12;80.77
80620;BME280;69979;53.682;-2.690;2023-12-20T06:30:16;101291.47;;;4.65;80.23
80620;BME280;69979;53.682;-2.690;2023-12-20T06:32:40;101290.93;;;4.89;79.63
80620;BME280;69979;53.682;-2.690;2023-12-20T06:35:08;101305.54;;;4.40;83.68
80620;BME280;69979;53.682;-2.690;2023-12-20T06:37:32;101307.45;;;3.90;84.56
80620;BME280;69979;53.682;-2.690;2023-12-20T06:40:03;101306.18;;;3.99;84.58
80620;BME280;69979;53.682;-2.690;2023-12-20T06:42:22;101316.55;;;4.41;83.30
80620;BME280;69979;53.682;-2.690;2023-12-20T06:44:48;101303.61;;;4.90;80.91
80620;BME280;69979;53.682;-2.690;2023-12-20T06:47:13;101306.71;;;4.34;82.03
80620;BME280;69979;53.682;-2.690;2023-12-20T06:49:38;101314.21;;;4.36;81.79
80620;BME280;69979;53.682;-2.690;2023-12-20T06:52:04;101318.78;;;4.43;80.58
80620;BME280;69979;53.682;-2.690;2023-12-20T06:54:30;101323.59;;;4.30;80.28
80620;BME280;69979;53.682;-2.690;2023-12-20T06:56:55;101324.05;;;4.95;77.28
80620;BME280;69979;53.682;-2.690;2023-12-20T06:59:21;101309.10;;;4.62;77.75
80620;BME280;69979;53.682;-2.690;2023-12-20T07:01:48;101302.78;;;4.27;77.89
80620;BME280;69979;53.682;-2.690;2023-12-20T07:04:12;101304.69;;;4.04;78.90
80620;BME280;69979;53.682;-2.690;2023-12-20T07:06:38;101309.35;;;4.22;79.43
80620;BME280;69979;53.682;-2.690;2023-12-20T07:09:03;101300.61;;;4.25;79.71
80620;BME280;69979;53.682;-2.690;2023-12-20T07:11:29;101310.98;;;4.14;80.79
80620;BME280;69979;53.682;-2.690;2023-12-20T07:13:54;101310.72;;;4.01;82.29
80620;BME280;69979;53.682;-2.690;2023-12-20T07:16:20;101310.38;;;4.11;82.32
80620;BME280;69979;53.682;-2.690;2023-12-20T07:18:45;101313.99;;;4.53;81.29
80620;BME280;69979;53.682;-2.690;2023-12-20T07:21:11;101318.08;;;4.55;79.76
80620;BME280;69979;53.682;-2.690;2023-12-20T07:23:37;101313.92;;;4.50;79.76
80620;BME280;69979;53.682;-2.690;2023-12-20T07:26:03;101306.58;;;4.74;78.87
80620;BME280;69979;53.682;-2.690;2023-12-20T07:28:28;101292.57;;;5.22;76.98
80620;BME280;69979;53.682;-2.690;2023-12-20T07:30:53;101299.93;;;4.94;78.57
80620;BME280;69979;53.682;-2.690;2023-12-20T07:33:19;101297.36;;;4.56;80.51
80620;BME280;69979;53.682;-2.690;2023-12-20T07:35:45;101309.48;;;4.41;81.34
80620;BME280;69979;53.682;-2.690;2023-12-20T07:38:10;101308.35;;;4.84;80.65
80620;BME280;69979;53.682;-2.690;2023-12-20T07:40:36;101306.72;;;4.45;82.63
80620;BME280;69979;53.682;-2.690;2023-12-20T07:43:01;101312.02;;;4.46;82.91
80620;BME280;69979;53.682;-2.690;2023-12-20T07:45:27;101309.76;;;4.34;84.03
80620;BME280;69979;53.682;-2.690;2023-12-20T07:47:53;101305.59;;;4.43;84.28
80620;BME280;69979;53.682;-2.690;2023-12-20T07:50:18;101314.94;;;4.48;84.21
80620;BME280;69979;53.682;-2.690;2023-12-20T07:52:44;101315.96;;;4.90;82.90
80620;BME280;69979;53.682;-2.690;2023-12-20T07:55:09;101316.05;;;4.57;84.69
80620;BME280;69979;53.682;-2.690;2023-12-20T07:57:35;101320.92;;;4.73;82.95
80620;BME280;69979;53.682;-2.690;2023-12-20T08:00:01;101299.18;;;5.04;80.65
80620;BME280;69979;53.682;-2.690;2023-12-20T08:02:26;101313.35;;;4.66;82.66
80620;BME280;69979;53.682;-2.690;2023-12-20T08:04:52;101308.82;;;4.61;82.95
80620;BME280;69979;53.682;-2.690;2023-12-20T08:07:17;101315.02;;;4.77;83.43
80620;BME280;69979;53.682;-2.690;2023-12-20T08:09:43;101317.10;;;4.37;85.69
80620;BME280;69979;53.682;-2.690;2023-12-20T08:12:08;101319.71;;;4.05;87.94
80620;BME280;69979;53.682;-2.690;2023-12-20T08:14:34;101313.02;;;4.23;86.55
80620;BME280;69979;53.682;-2.690;2023-12-20T08:17:00;101310.71;;;4.62;85.19
80620;BME280;69979;53.682;-2.690;2023-12-20T08:19:25;101312.79;;;4.40;85.51
80620;BME280;69979;53.682;-2.690;2023-12-20T08:21:51;101313.13;;;5.01;83.68
80620;BME280;69979;53.682;-2.690;2023-12-20T08:24:17;101324.30;;;4.05;86.86
80620;BME280;69979;53.682;-2.690;2023-12-20T08:26:42;101306.19;;;4.31;86.66
80620;BME280;69979;53.682;-2.690;2023-12-20T08:29:08;101317.79;;;4.09;86.94
80620;BME280;69979;53.682;-2.690;2023-12-20T08:31:34;101312.46;;;4.89;84.75
80620;BME280;69979;53.682;-2.690;2023-12-20T08:33:59;101313.79;;;4.72;83.45
80620;BME280;69979;53.682;-2.690;2023-12-20T08:36:25;101306.82;;;4.66;85.28
80620;BME280;69979;53.682;-2.690;2023-12-20T08:38:51;101302.78;;;4.90;83.19
80620;BME280;69979;53.682;-2.690;2023-12-20T08:41:16;101295.44;;;4.30;87.35
80620;BME280;69979;53.682;-2.690;2023-12-20T08:43:42;101298.42;;;4.26;88.54
80620;BME280;69979;53.682;-2.690;2023-12-20T08:46:08;101292.53;;;4.08;89.40
80620;BME280;69979;53.682;-2.690;2023-12-20T08:48:33;101297.33;;;4.28;88.45
80620;BME280;69979;53.682;-2.690;2023-12-20T08:50:59;101299.02;;;4.53;85.56
80620;BME280;69979;53.682;-2.690;2023-12-20T08:53:24;101285.27;;;4.73;85.36
80620;BME280;69979;53.682;-2.690;2023-12-20T08:55:50;101277.06;;;5.22;83.95
80620;BME280;69979;53.682;-2.690;2023-12-20T08:58:15;101275.14;;;5.15;83.93
80620;BME280;69979;53.682;-2.690;2023-12-20T09:00:41;101280.48;;;4.51;86.48
80620;BME280;69979;53.682;-2.690;2023-12-20T09:03:06;101263.67;;;4.38;89.01
80620;BME280;69979;53.682;-2.690;2023-12-20T09:05:32;101271.20;;;4.59;87.03
80620;BME280;69979;53.682;-2.690;2023-12-20T09:07:57;101256.77;;;4.53;87.97
80620;BME280;69979;53.682;-2.690;2023-12-20T09:10:23;101260.68;;;4.26;89.77
80620;BME280;69979;53.682;-2.690;2023-12-20T09:12:49;101268.17;;;4.63;88.77
80620;BME280;69979;53.682;-2.690;2023-12-20T09:15:14;101265.67;;;4.27;90.57
80620;BME280;69979;53.682;-2.690;2023-12-20T09:17:39;101276.94;;;4.41;89.20
80620;BME280;69979;53.682;-2.690;2023-12-20T09:20:06;101270.59;;;4.74;89.33
80620;BME280;69979;53.682;-2.690;2023-12-20T09:22:31;101267.48;;;4.33;91.75
80620;BME280;69979;53.682;-2.690;2023-12-20T09:24:56;101278.27;;;4.64;92.98
80620;BME280;69979;53.682;-2.690;2023-12-20T09:27:22;101271.66;;;4.76;90.90
80620;BME280;69979;53.682;-2.690;2023-12-20T09:29:47;101270.82;;;4.37;92.25
80620;BME280;69979;53.682;-2.690;2023-12-20T09:32:13;101258.77;;;3.86;95.97
80620;BME280;69979;53.682;-2.690;2023-12-20T09:34:38;101261.78;;;4.03;96.31
80620;BME280;69979;53.682;-2.690;2023-12-20T09:37:04;101266.54;;;3.93;96.40
80620;BME280;69979;53.682;-2.690;2023-12-20T09:39:29;101263.66;;;4.17;96.56
80620;BME280;69979;53.682;-2.690;2023-12-20T09:42:01;101264.85;;;4.47;94.89
80620;BME280;69979;53.682;-2.690;2023-12-20T09:44:21;101276.57;;;4.61;95.22
80620;BME280;69979;53.682;-2.690;2023-12-20T09:46:50;101267.77;;;5.23;93.12
80620;BME280;69979;53.682;-2.690;2023-12-20T09:49:12;101267.06;;;4.41;94.43
80620;BME280;69979;53.682;-2.690;2023-12-20T09:51:37;101271.87;;;4.14;96.11
80620;BME280;69979;53.682;-2.690;2023-12-20T09:54:03;101261.51;;;4.53;96.20
80620;BME280;69979;53.682;-2.690;2023-12-20T09:56:28;101272.55;;;4.28;97.08
80620;BME280;69979;53.682;-2.690;2023-12-20T09:58:54;101266.55;;;4.16;100.00
80620;BME280;69979;53.682;-2.690;2023-12-20T10:01:19;101258.48;;;4.03;99.91
80620;BME280;69979;53.682;-2.690;2023-12-20T10:03:45;101253.48;;;4.86;97.12
80620;BME280;69979;53.682;-2.690;2023-12-20T10:06:11;101239.96;;;4.86;94.70
80620;BME280;69979;53.682;-2.690;2023-12-20T10:08:36;101245.27;;;4.54;97.03
80620;BME280;69979;53.682;-2.690;2023-12-20T10:11:02;101243.67;;;4.27;97.83
80620;BME280;69979;53.682;-2.690;2023-12-20T10:13:28;101240.31;;;4.57;98.02
80620;BME280;69979;53.682;-2.690;2023-12-20T10:15:55;101230.52;;;4.43;98.40
80620;BME280;69979;53.682;-2.690;2023-12-20T10:18:19;101231.34;;;4.61;96.20
80620;BME280;69979;53.682;-2.690;2023-12-20T10:20:45;101229.80;;;4.36;95.75
80620;BME280;69979;53.682;-2.690;2023-12-20T10:23:11;101219.59;;;4.94;94.84
80620;BME280;69979;53.682;-2.690;2023-12-20T10:25:36;101228.45;;;4.07;97.97
80620;BME280;69979;53.682;-2.690;2023-12-20T10:28:11;101229.35;;;4.62;94.70
80620;BME280;69979;53.682;-2.690;2023-12-20T10:30:27;101211.93;;;5.00;94.52
80620;BME280;69979;53.682;-2.690;2023-12-20T10:32:52;101222.31;;;4.46;96.29
80620;BME280;69979;53.682;-2.690;2023-12-20T10:35:19;101220.06;;;4.80;96.40
80620;BME280;69979;53.682;-2.690;2023-12-20T10:37:44;101211.71;;;4.80;94.48
80620;BME280;69979;53.682;-2.690;2023-12-20T10:40:10;101210.36;;;4.20;95.74
80620;BME280;69979;53.682;-2.690;2023-12-20T10:42:35;101200.06;;;4.60;95.09
80620;BME280;69979;53.682;-2.690;2023-12-20T10:45:01;101203.58;;;4.68;95.67
80620;BME280;69979;53.682;-2.690;2023-12-20T10:47:27;101204.90;;;4.56;96.22
80620;BME280;69979;53.682;-2.690;2023-12-20T10:49:52;101202.66;;;4.20;97.15
80620;BME280;69979;53.682;-2.690;2023-12-20T10:52:18;101196.11;;;4.86;95.62
80620;BME280;69979;53.682;-2.690;2023-12-20T10:54:44;101190.17;;;4.48;96.13
80620;BME280;69979;53.682;-2.690;2023-12-20T10:57:08;101185.56;;;4.40;95.98
80620;BME280;69979;53.682;-2.690;2023-12-20T10:59:37;101180.74;;;4.48;95.78
80620;BME280;69979;53.682;-2.690;2023-12-20T11:02:00;101179.02;;;4.72;95.71
80620;BME280;69979;53.682;-2.690;2023-12-20T11:04:31;101172.75;;;4.85;93.92
80620;BME280;69979;53.682;-2.690;2023-12-20T11:06:54;101184.56;;;4.30;95.81
80620;BME280;69979;53.682;-2.690;2023-12-20T11:09:20;101152.19;;;4.71;96.01
80620;BME280;69979;53.682;-2.690;2023-12-20T11:11:56;101167.21;;;5.00;93.78
80620;BME280;69979;53.682;-2.690;2023-12-20T11:14:11;101142.74;;;4.63;93.43
80620;BME280;69979;53.682;-2.690;2023-12-20T11:16:33;101128.47;;;4.91;93.82
80620;BME280;69979;53.682;-2.690;2023-12-20T11:19:04;101136.44;;;4.67;94.94
80620;BME280;69979;53.682;-2.690;2023-12-20T11:21:24;101112.21;;;4.90;93.01
80620;BME280;69979;53.682;-2.690;2023-12-20T11:23:49;101111.82;;;5.20;92.77
80620;BME280;69979;53.682;-2.690;2023-12-20T11:26:16;101114.19;;;4.73;94.16
80620;BME280;69979;53.682;-2.690;2023-12-20T11:28:40;101103.74;;;4.86;93.43
80620;BME280;69979;53.682;-2.690;2023-12-20T11:31:06;101082.61;;;4.74;93.71
80620;BME280;69979;53.682;-2.690;2023-12-20T11:33:36;101090.45;;;5.36;90.97
80620;BME280;69979;53.682;-2.690;2023-12-20T11:35:58;101083.20;;;4.52;94.24
80620;BME280;69979;53.682;-2.690;2023-12-20T11:38:24;101096.41;;;4.67;95.65
80620;BME280;69979;53.682;-2.690;2023-12-20T11:40:49;101089.19;;;5.06;95.00
80620;BME280;69979;53.682;-2.690;2023-12-20T11:45:49;101098.99;;;5.11;94.27
80620;BME280;69979;53.682;-2.690;2023-12-20T11:48:06;101094.44;;;4.87;94.64
80620;BME280;69979;53.682;-2.690;2023-12-20T11:50:30;101100.12;;;4.44;97.46
80620;BME280;69979;53.682;-2.690;2023-12-20T11:52:56;101077.20;;;4.78;95.91
80620;BME280;69979;53.682;-2.690;2023-12-20T11:55:22;101083.78;;;4.86;95.66
80620;BME280;69979;53.682;-2.690;2023-12-20T11:57:47;101087.30;;;5.20;92.72
80620;BME280;69979;53.682;-2.690;2023-12-20T12:00:14;101084.38;;;4.60;96.40
80620;BME280;69979;53.682;-2.690;2023-12-20T12:02:39;101081.94;;;4.60;96.36
80620;BME280;69979;53.682;-2.690;2023-12-20T12:05:05;101071.08;;;4.81;97.17
80620;BME280;69979;53.682;-2.690;2023-12-20T12:07:30;101077.59;;;4.68;95.83
80620;BME280;69979;53.682;-2.690;2023-12-20T12:09:55;101086.76;;;4.45;96.62
80620;BME280;69979;53.682;-2.690;2023-12-20T12:12:27;101061.93;;;4.83;97.77
80620;BME280;69979;53.682;-2.690;2023-12-20T12:14:48;101078.97;;;4.66;97.33
80620;BME280;69979;53.682;-2.690;2023-12-20T12:17:12;101071.12;;;4.58;97.57
80620;BME280;69979;53.682;-2.690;2023-12-20T12:19:37;101060.22;;;4.67;97.26
80620;BME280;69979;53.682;-2.690;2023-12-20T12:22:06;101057.67;;;4.52;98.04
80620;BME280;69979;53.682;-2.690;2023-12-20T12:24:28;101048.54;;;4.75;98.10
80620;BME280;69979;53.682;-2.690;2023-12-20T12:26:57;101038.54;;;4.76;96.88
80620;BME280;69979;53.682;-2.690;2023-12-20T12:29:22;101027.88;;;4.25;97.29
80620;BME280;69979;53.682;-2.690;2023-12-20T12:31:48;101009.54;;;4.55;98.79
80620;BME280;69979;53.682;-2.690;2023-12-20T12:34:13;101004.47;;;4.47;99.87
80620;BME280;69979;53.682;-2.690;2023-12-20T12:36:40;100996.40;;;5.01;99.37
80620;BME280;69979;53.682;-2.690;2023-12-20T12:39:05;100999.15;;;4.36;100.00
80620;BME280;69979;53.682;-2.690;2023-12-20T12:41:30;100997.59;;;4.51;100.00
80620;BME280;69979;53.682;-2.690;2023-12-20T12:43:56;100995.25;;;4.27;100.00